createdAt,value
2019-01-23T00:00:29.376Z,30.85
2019-01-23T00:02:58.084Z,35.65
2019-01-23T00:05:26.552Z,35.30
2019-01-23T00:07:55.008Z,33.23
2019-01-23T00:10:23.486Z,33.88
2019-01-23T00:12:51.949Z,33.80
2019-01-23T00:15:20.414Z,32.23
2019-01-23T00:17:48.865Z,32.83
2019-01-23T00:20:17.337Z,32.28
2019-01-23T00:22:45.788Z,33.28
2019-01-23T00:25:14.345Z,32.00
2019-01-23T00:27:42.804Z,31.82
2019-01-23T00:30:13.289Z,29.23
2019-01-23T00:32:41.753Z,33.88
2019-01-23T00:35:10.300Z,31.80
2019-01-23T00:37:38.768Z,33.00
2019-01-23T00:40:13.032Z,30.27
2019-01-23T00:42:41.557Z,32.80
2019-01-23T00:45:12.552Z,33.23
2019-01-23T00:47:41.016Z,31.45
2019-01-23T00:50:11.319Z,31.70
2019-01-23T00:52:39.775Z,30.70
2019-01-23T00:55:11.463Z,30.52
2019-01-23T00:57:39.947Z,31.17
2019-01-23T01:00:17.253Z,32.13
2019-01-23T01:02:45.721Z,29.98
2019-01-23T01:05:15.916Z,32.95
2019-01-23T01:07:44.461Z,31.12
2019-01-23T01:10:16.040Z,29.32
2019-01-23T01:12:44.587Z,29.42
2019-01-23T01:15:13.698Z,27.40
2019-01-23T01:17:42.317Z,32.73
2019-01-23T01:20:13.719Z,29.95
2019-01-23T01:22:42.375Z,31.17
2019-01-23T01:25:15.973Z,30.20
2019-01-23T01:27:44.453Z,29.45
2019-01-23T01:30:15.732Z,31.30
2019-01-23T01:32:44.200Z,30.32
2019-01-23T01:35:12.724Z,32.55
2019-01-23T01:37:41.175Z,32.08
2019-01-23T01:40:12.648Z,30.12
2019-01-23T01:42:41.068Z,30.20
2019-01-23T01:45:14.007Z,30.82
2019-01-23T01:47:42.613Z,33.92
2019-01-23T01:50:16.391Z,29.23
2019-01-23T01:52:44.853Z,32.73
2019-01-23T01:55:13.464Z,30.60
2019-01-23T01:57:41.913Z,30.15
2019-01-23T02:00:15.795Z,32.50
2019-01-23T02:02:44.254Z,32.48
2019-01-23T02:05:12.883Z,29.52
2019-01-23T02:07:41.418Z,29.80
2019-01-23T02:10:13.221Z,28.98
2019-01-23T02:12:41.757Z,25.40
2019-01-23T02:15:11.886Z,30.20
2019-01-23T02:17:40.405Z,31.25
2019-01-23T02:20:23.015Z,28.83
2019-01-23T02:22:52.025Z,31.48
2019-01-23T02:25:20.833Z,32.30
2019-01-23T02:27:49.837Z,30.43
2019-01-23T02:30:20.339Z,31.17
2019-01-23T02:32:48.785Z,30.68
2019-01-23T02:35:17.583Z,32.73
2019-01-23T02:37:46.040Z,30.72
2019-01-23T02:40:19.565Z,30.77
2019-01-23T02:42:48.015Z,33.73
2019-01-23T02:45:16.937Z,31.90
2019-01-23T02:47:45.648Z,32.00
2019-01-23T02:50:16.548Z,31.70
2019-01-23T02:52:44.989Z,32.83
2019-01-23T02:55:13.595Z,32.85
2019-01-23T02:57:42.047Z,31.97
2019-01-23T03:00:13.817Z,25.32
2019-01-23T03:02:42.311Z,31.73
2019-01-23T03:05:13.421Z,30.48
2019-01-23T03:07:41.873Z,34.58
2019-01-23T03:10:13.074Z,32.55
2019-01-23T03:12:41.526Z,32.03
2019-01-23T03:15:12.544Z,33.15
2019-01-23T03:17:40.998Z,32.23
2019-01-23T03:20:11.898Z,35.52
2019-01-23T03:22:40.380Z,31.42
2019-01-23T03:25:10.779Z,33.33
2019-01-23T03:27:39.210Z,34.10
2019-01-23T03:30:13.443Z,32.67
2019-01-23T03:32:41.898Z,33.18
2019-01-23T03:35:10.696Z,32.42
2019-01-23T03:37:39.142Z,34.85
2019-01-23T03:40:11.157Z,34.00
2019-01-23T03:42:39.609Z,35.15
2019-01-23T03:45:10.705Z,34.33
2019-01-23T03:47:39.257Z,35.45
2019-01-23T03:50:11.042Z,32.88
2019-01-23T03:52:39.512Z,35.38
2019-01-23T03:55:09.800Z,35.90
2019-01-23T03:57:38.271Z,32.83
2019-01-23T04:00:12.422Z,35.45
2019-01-23T04:02:41.134Z,35.83
2019-01-23T04:05:10.819Z,30.85
2019-01-23T04:07:39.272Z,31.57
2019-01-23T04:10:12.878Z,29.82
2019-01-23T04:12:41.345Z,32.23
2019-01-23T04:15:11.827Z,33.48
2019-01-23T04:17:40.462Z,33.88
2019-01-23T04:20:14.240Z,34.90
2019-01-23T04:22:42.888Z,27.60
2019-01-23T04:25:11.682Z,35.28
2019-01-23T04:27:40.143Z,33.18
2019-01-23T04:30:11.666Z,33.85
2019-01-23T04:32:40.133Z,32.88
2019-01-23T04:35:08.854Z,33.85
2019-01-23T04:37:37.326Z,31.90
2019-01-23T04:40:08.919Z,26.50
2019-01-23T04:42:37.372Z,33.67
2019-01-23T04:45:11.472Z,33.98
2019-01-23T04:47:39.925Z,32.28
2019-01-23T04:50:10.807Z,30.45
2019-01-23T04:52:56.408Z,34.83
2019-01-23T04:55:24.795Z,30.95
2019-01-23T04:57:53.265Z,37.63
2019-01-23T05:00:23.391Z,33.05
2019-01-23T05:02:51.861Z,33.45
2019-01-23T05:05:20.381Z,33.60
2019-01-23T05:07:48.956Z,34.43
2019-01-23T05:10:17.411Z,29.95
2019-01-23T05:12:45.879Z,34.38
2019-01-23T05:15:14.314Z,32.55
2019-01-23T05:17:42.775Z,34.23
2019-01-23T05:20:13.758Z,29.20
2019-01-23T05:22:42.231Z,33.50
2019-01-23T05:25:11.817Z,30.97
2019-01-23T05:27:40.606Z,32.75
2019-01-23T05:30:18.383Z,33.10
2019-01-23T05:32:46.884Z,34.43
2019-01-23T05:35:15.331Z,34.05
2019-01-23T05:37:43.836Z,36.23
2019-01-23T05:40:13.240Z,31.70
2019-01-23T05:42:41.713Z,32.42
2019-01-23T05:45:13.230Z,34.78
2019-01-23T05:47:41.745Z,32.88
2019-01-23T05:50:18.219Z,34.53
2019-01-23T05:52:48.278Z,35.75
2019-01-23T05:55:17.091Z,26.30
2019-01-23T05:57:45.683Z,32.70
2019-01-23T06:00:19.638Z,34.92
2019-01-23T06:02:48.228Z,32.28
2019-01-23T06:05:17.865Z,32.35
2019-01-23T06:07:46.304Z,34.53
2019-01-23T06:10:14.834Z,35.52
2019-01-23T06:12:43.279Z,30.77
2019-01-23T06:15:13.403Z,36.05
2019-01-23T06:17:41.858Z,34.88
2019-01-23T06:20:13.464Z,35.20
2019-01-23T06:22:41.912Z,34.20
2019-01-23T06:25:10.631Z,33.50
2019-01-23T06:27:39.086Z,36.25
2019-01-23T06:30:10.838Z,36.73
2019-01-23T06:32:39.268Z,35.52
2019-01-23T06:35:07.744Z,34.75
2019-01-23T06:37:36.226Z,35.03
2019-01-23T06:40:07.060Z,35.58
2019-01-23T06:42:35.532Z,37.05
2019-01-23T06:45:04.746Z,39.48
2019-01-23T06:47:33.220Z,37.88
2019-01-23T06:50:01.721Z,38.08
2019-01-23T06:52:30.230Z,39.78
2019-01-23T06:54:58.694Z,37.60
2019-01-23T06:57:27.152Z,40.38
2019-01-23T06:59:55.620Z,40.63
2019-01-23T07:02:24.086Z,39.65
2019-01-23T07:04:52.556Z,39.75
2019-01-23T07:07:21.032Z,39.60
2019-01-23T07:09:51.142Z,40.90
2019-01-23T07:12:19.617Z,39.75
2019-01-23T07:14:48.082Z,46.92
2019-01-23T07:17:16.534Z,37.03
2019-01-23T07:19:45.029Z,41.90
2019-01-23T07:22:13.496Z,44.50
2019-01-23T07:24:41.990Z,44.42
2019-01-23T07:27:10.465Z,44.35
2019-01-23T07:29:38.965Z,46.13
2019-01-23T07:32:07.419Z,45.23
2019-01-23T07:34:35.908Z,31.97
2019-01-23T07:37:04.529Z,49.42
2019-01-23T07:39:33.015Z,47.35
2019-01-23T07:42:01.473Z,49.53
2019-01-23T07:44:29.971Z,51.28
2019-01-23T07:46:58.636Z,46.37
2019-01-23T07:49:27.143Z,50.65
2019-01-23T07:51:55.617Z,53.63
2019-01-23T07:54:24.086Z,45.48
2019-01-23T07:56:52.534Z,56.37
2019-01-23T07:59:20.993Z,53.17
2019-01-23T08:01:49.485Z,50.50
2019-01-23T08:04:17.939Z,53.87
2019-01-23T08:06:46.396Z,52.73
2019-01-23T08:09:14.838Z,55.15
2019-01-23T08:11:43.331Z,51.85
2019-01-23T08:14:11.797Z,53.65
2019-01-23T08:16:40.282Z,55.78
2019-01-23T08:19:08.774Z,55.92
2019-01-23T08:21:37.246Z,57.95
2019-01-23T08:24:05.700Z,57.95
2019-01-23T08:26:34.191Z,59.55
2019-01-23T08:29:02.649Z,57.83
2019-01-23T08:31:31.144Z,59.48
2019-01-23T08:33:59.605Z,62.45
2019-01-23T08:36:28.073Z,52.88
2019-01-23T08:38:56.538Z,56.73
2019-01-23T08:41:25.045Z,60.38
2019-01-23T08:43:53.503Z,65.08
2019-01-23T08:46:21.992Z,54.38
2019-01-23T08:48:50.436Z,62.50
2019-01-23T08:51:18.900Z,64.40
2019-01-23T08:53:47.420Z,66.40
2019-01-23T08:56:15.891Z,68.20
2019-01-23T08:58:44.369Z,51.92
2019-01-23T09:01:12.824Z,65.75
2019-01-23T09:03:41.304Z,71.15
2019-01-23T09:06:09.762Z,66.70
2019-01-23T09:08:38.284Z,66.17
2019-01-23T09:11:06.723Z,73.65
2019-01-23T09:13:35.192Z,76.28
2019-01-23T09:16:03.636Z,66.85
2019-01-23T09:18:32.091Z,43.80
2019-01-23T09:21:00.556Z,65.00
2019-01-23T09:23:29.023Z,74.12
2019-01-23T09:25:57.483Z,71.47
2019-01-23T09:28:25.958Z,68.12
2019-01-23T09:30:57.463Z,73.70
2019-01-23T09:33:49.522Z,67.90
2019-01-23T09:36:41.767Z,71.70
2019-01-23T09:39:19.046Z,78.20
2019-01-23T09:41:50.542Z,78.92
2019-01-23T09:44:24.640Z,71.97
2019-01-23T09:47:16.880Z,79.87
2019-01-23T09:49:57.245Z,63.20
2019-01-23T09:52:37.629Z,73.50
2019-01-23T09:55:09.334Z,77.05
2019-01-23T09:57:39.609Z,77.08
2019-01-23T10:00:11.142Z,69.30
2019-01-23T10:02:39.586Z,73.35
2019-01-23T10:05:08.968Z,73.83
2019-01-23T10:07:37.416Z,76.12
2019-01-23T10:10:08.926Z,76.50
2019-01-23T10:12:37.390Z,66.82
2019-01-23T10:15:08.906Z,80.72
2019-01-23T10:17:37.529Z,63.98
2019-01-23T10:20:06.559Z,75.55
2019-01-23T10:22:35.026Z,75.57
2019-01-23T10:25:03.548Z,75.92
2019-01-23T10:27:32.026Z,79.12
2019-01-23T10:30:00.486Z,74.22
2019-01-23T10:32:28.955Z,63.28
2019-01-23T10:34:57.408Z,72.53
2019-01-23T10:37:25.884Z,64.75
2019-01-23T10:39:54.371Z,74.17
2019-01-23T10:42:22.879Z,74.10
2019-01-23T10:44:51.287Z,78.42
2019-01-23T10:47:19.760Z,75.83
2019-01-23T10:49:48.249Z,79.92
2019-01-23T10:52:16.753Z,77.40
2019-01-23T10:54:45.225Z,83.92
2019-01-23T10:57:13.723Z,78.72
2019-01-23T10:59:42.187Z,75.90
2019-01-23T11:02:11.026Z,73.05
2019-01-23T11:04:39.501Z,68.22
2019-01-23T11:07:07.955Z,68.00
2019-01-23T11:09:36.422Z,78.85
2019-01-23T11:12:05.079Z,71.17
2019-01-23T11:14:33.558Z,72.60
2019-01-23T11:17:02.026Z,70.55
2019-01-23T11:19:30.490Z,76.95
2019-01-23T11:21:59.152Z,77.32
2019-01-23T11:24:27.695Z,63.17
2019-01-23T11:26:56.146Z,57.43
2019-01-23T11:29:24.633Z,71.35
2019-01-23T11:31:53.083Z,73.35
2019-01-23T11:34:21.564Z,70.70
2019-01-23T11:36:50.023Z,70.28
2019-01-23T11:39:18.727Z,70.75
2019-01-23T11:41:47.192Z,67.40
2019-01-23T11:44:15.661Z,64.15
2019-01-23T11:46:44.136Z,68.60
2019-01-23T11:49:12.595Z,66.87
2019-01-23T11:51:41.231Z,62.60
2019-01-23T11:54:09.826Z,73.67
2019-01-23T11:56:38.315Z,60.92
2019-01-23T11:59:06.775Z,64.92
2019-01-23T12:01:35.235Z,62.40
2019-01-23T12:04:03.748Z,57.93
2019-01-23T12:06:32.212Z,64.40
2019-01-23T12:09:00.666Z,63.58
2019-01-23T12:11:29.134Z,67.42
2019-01-23T12:13:57.608Z,65.65
2019-01-23T12:16:26.092Z,69.55
2019-01-23T12:18:54.815Z,70.65
2019-01-23T12:21:23.285Z,66.00
2019-01-23T12:23:58.247Z,65.65
2019-01-23T12:26:23.448Z,67.70
2019-01-23T12:28:51.902Z,54.93
2019-01-23T12:31:34.653Z,60.73
2019-01-23T12:34:06.914Z,65.55
2019-01-23T12:36:35.388Z,57.83
2019-01-23T12:39:05.356Z,67.65
2019-01-23T12:41:33.814Z,66.82
2019-01-23T12:44:02.439Z,64.85
2019-01-23T12:46:30.899Z,66.17
2019-01-23T12:48:59.377Z,50.70
2019-01-23T12:51:27.838Z,62.40
2019-01-23T12:53:56.314Z,63.63
2019-01-23T12:56:24.786Z,63.80
2019-01-23T12:58:53.330Z,59.27
2019-01-23T13:01:21.773Z,56.45
2019-01-23T13:03:50.266Z,64.92
2019-01-23T13:06:21.716Z,64.32
2019-01-23T13:08:50.186Z,64.97
2019-01-23T13:11:18.684Z,59.38
2019-01-23T13:13:47.357Z,62.55
2019-01-23T13:16:15.812Z,58.68
2019-01-23T13:18:44.320Z,62.33
2019-01-23T13:21:12.775Z,63.02
2019-01-23T13:23:41.246Z,63.68
2019-01-23T13:26:09.683Z,56.83
2019-01-23T13:28:38.152Z,57.30
2019-01-23T13:31:06.606Z,58.00
2019-01-23T13:33:35.073Z,58.17
2019-01-23T13:36:05.534Z,47.93
2019-01-23T13:38:33.973Z,57.33
2019-01-23T13:41:02.485Z,53.60
2019-01-23T13:43:31.164Z,55.03
2019-01-23T13:45:59.717Z,53.80
2019-01-23T13:48:28.212Z,52.48
2019-01-23T13:50:56.669Z,50.73
2019-01-23T13:53:25.141Z,53.65
2019-01-23T13:55:53.633Z,48.85
2019-01-23T13:58:22.102Z,49.03
2019-01-23T14:00:50.557Z,45.85
2019-01-23T14:03:19.021Z,50.23
2019-01-23T14:05:47.495Z,46.37
2019-01-23T14:08:15.970Z,49.53
2019-01-23T14:10:44.423Z,45.70
2019-01-23T14:13:12.993Z,46.28
2019-01-23T14:15:41.529Z,43.98
2019-01-23T14:18:10.116Z,48.48
2019-01-23T14:20:38.585Z,47.17
2019-01-23T14:23:07.040Z,43.68
2019-01-23T14:25:35.893Z,43.50
2019-01-23T14:28:05.304Z,44.75
2019-01-23T14:30:36.303Z,42.75
2019-01-23T14:33:04.824Z,45.33
2019-01-23T14:35:34.140Z,44.33
2019-01-23T14:38:02.614Z,43.92
2019-01-23T14:40:31.086Z,48.58
2019-01-23T14:42:59.540Z,43.20
2019-01-23T14:45:28.199Z,44.45
2019-01-23T14:47:56.665Z,41.53
2019-01-23T14:50:25.221Z,37.10
2019-01-23T14:52:53.761Z,38.35
2019-01-23T14:55:22.365Z,40.35
2019-01-23T14:57:50.914Z,37.75
2019-01-23T15:00:32.807Z,36.60
2019-01-23T15:03:01.299Z,35.35
2019-01-23T15:05:29.748Z,34.08
2019-01-23T15:07:58.197Z,36.28
2019-01-23T15:10:31.578Z,36.17
2019-01-23T15:13:00.359Z,34.00
2019-01-23T15:15:29.071Z,34.45
2019-01-23T15:17:57.520Z,36.10
2019-01-23T15:20:34.934Z,32.38
2019-01-23T15:23:03.394Z,33.18
2019-01-23T15:25:31.862Z,33.73
2019-01-23T15:28:00.327Z,33.05
2019-01-23T15:30:28.818Z,28.73
2019-01-23T15:32:57.279Z,31.07
2019-01-23T15:35:25.733Z,29.87
2019-01-23T15:37:54.239Z,29.07
2019-01-23T15:40:34.172Z,28.83
2019-01-23T15:43:02.617Z,29.32
2019-01-23T15:45:31.079Z,27.30
2019-01-23T15:47:59.548Z,29.40
2019-01-23T15:50:28.572Z,28.70
2019-01-23T15:52:57.033Z,25.92
2019-01-23T15:55:26.124Z,27.65
2019-01-23T15:57:54.670Z,23.42
2019-01-23T16:00:28.356Z,25.77
2019-01-23T16:02:56.937Z,28.55
2019-01-23T16:05:25.545Z,25.52
2019-01-23T16:07:54.008Z,28.65
2019-01-23T16:10:25.268Z,25.25
2019-01-23T16:12:53.815Z,26.20
2019-01-23T16:15:24.505Z,23.65
2019-01-23T16:17:53.312Z,23.95
2019-01-23T16:20:25.309Z,25.17
2019-01-23T16:22:54.020Z,23.85
2019-01-23T16:25:22.531Z,22.65
2019-01-23T16:27:51.023Z,24.23
2019-01-23T16:30:27.703Z,23.52
2019-01-23T16:32:56.339Z,23.27
2019-01-23T16:35:25.126Z,20.08
2019-01-23T16:37:53.599Z,23.45
2019-01-23T16:40:22.073Z,24.43
2019-01-23T16:42:50.601Z,20.60
2019-01-23T16:45:20.388Z,20.82
2019-01-23T16:47:49.188Z,22.02
2019-01-23T16:50:23.410Z,21.55
2019-01-23T16:52:52.245Z,20.72
2019-01-23T16:55:20.743Z,21.12
2019-01-23T16:57:49.858Z,21.07
2019-01-23T17:00:26.610Z,20.52
2019-01-23T17:02:55.222Z,16.27
2019-01-23T17:05:26.496Z,20.70
2019-01-23T17:07:55.819Z,20.45
2019-01-23T17:10:27.035Z,18.02
2019-01-23T17:12:55.616Z,20.05
2019-01-23T17:15:24.252Z,19.87
2019-01-23T17:17:53.009Z,20.95
2019-01-23T17:20:33.259Z,22.17
2019-01-23T17:23:01.730Z,23.30
2019-01-23T17:25:30.303Z,22.22
2019-01-23T17:27:58.948Z,19.50
2019-01-23T17:30:27.410Z,18.73
2019-01-23T17:32:55.871Z,20.23
2019-01-23T17:35:24.365Z,17.95
2019-01-23T17:37:52.919Z,22.55
2019-01-23T17:40:25.204Z,21.02
2019-01-23T17:42:53.637Z,21.23
2019-01-23T17:45:25.175Z,19.17
2019-01-23T17:47:53.901Z,21.00
2019-01-23T17:50:23.865Z,17.12
2019-01-23T17:52:52.704Z,21.57
2019-01-23T17:55:24.120Z,21.93
2019-01-23T17:57:53.074Z,22.10
2019-01-23T18:00:26.098Z,21.93
2019-01-23T18:02:54.887Z,23.55
2019-01-23T18:05:23.984Z,20.85
2019-01-23T18:07:52.513Z,19.80
2019-01-23T18:10:21.066Z,19.67
2019-01-23T18:12:49.603Z,19.82
2019-01-23T18:15:33.165Z,23.22
2019-01-23T18:18:01.615Z,22.75
2019-01-23T18:20:30.551Z,24.45
2019-01-23T18:22:59.202Z,21.73
2019-01-23T18:25:28.134Z,23.20
2019-01-23T18:27:56.600Z,21.33
2019-01-23T18:30:43.189Z,19.02
2019-01-23T18:33:14.697Z,23.02
2019-01-23T18:36:02.577Z,24.18
2019-01-23T18:38:34.127Z,21.50
2019-01-23T18:41:14.893Z,24.67
2019-01-23T18:44:10.148Z,22.10
2019-01-23T18:46:45.024Z,22.55
2019-01-23T18:49:22.029Z,25.75
2019-01-23T18:51:53.557Z,23.47
2019-01-23T18:54:22.029Z,22.17
2019-01-23T18:56:50.585Z,25.65
2019-01-23T18:59:19.068Z,21.45
2019-01-23T19:01:47.581Z,23.80
2019-01-23T19:04:16.061Z,23.20
2019-01-23T19:06:44.555Z,21.20
2019-01-23T19:09:13.656Z,25.68
2019-01-23T19:11:42.164Z,23.75
2019-01-23T19:14:10.654Z,17.05
2019-01-23T19:16:41.044Z,23.62
2019-01-23T19:19:10.940Z,25.37
2019-01-23T19:21:39.429Z,24.07
2019-01-23T19:24:07.913Z,24.00
2019-01-23T19:26:36.416Z,23.60
2019-01-23T19:29:06.140Z,21.25
2019-01-23T19:31:34.631Z,21.77
2019-01-23T19:34:03.136Z,23.07
2019-01-23T19:36:31.643Z,23.40
2019-01-23T19:39:00.131Z,23.30
2019-01-23T19:41:28.842Z,23.90
2019-01-23T19:43:57.421Z,24.67
2019-01-23T19:46:26.080Z,23.70
2019-01-23T19:48:54.877Z,22.85
2019-01-23T19:51:23.357Z,20.75
2019-01-23T19:53:51.708Z,23.45
2019-01-23T19:56:20.516Z,24.87
2019-01-23T19:58:49.016Z,25.77
2019-01-23T20:01:17.827Z,23.60
2019-01-23T20:03:47.356Z,23.95
2019-01-23T20:06:15.914Z,30.17
2019-01-23T20:08:44.407Z,23.22
2019-01-23T20:11:12.915Z,24.98
2019-01-23T20:13:41.756Z,24.32
2019-01-23T20:16:10.336Z,25.15
2019-01-23T20:18:38.827Z,26.45
2019-01-23T20:21:07.361Z,25.40
2019-01-23T20:23:35.832Z,21.20
2019-01-23T20:26:04.600Z,22.75
2019-01-23T20:28:33.206Z,24.82
2019-01-23T20:31:01.731Z,22.90
2019-01-23T20:33:30.317Z,22.90
2019-01-23T20:35:58.800Z,25.52
2019-01-23T20:38:27.276Z,23.80
2019-01-23T20:40:55.788Z,24.20
2019-01-23T20:43:24.304Z,23.50
2019-01-23T20:45:53.108Z,24.05
2019-01-23T20:48:21.610Z,22.70
2019-01-23T20:50:50.100Z,22.62
2019-01-23T20:53:18.598Z,22.82
2019-01-23T20:55:47.084Z,22.85
2019-01-23T20:58:15.932Z,24.37
2019-01-23T21:00:45.086Z,24.05
2019-01-23T21:03:13.592Z,25.35
2019-01-23T21:05:42.102Z,24.52
2019-01-23T21:08:10.636Z,23.45
2019-01-23T21:10:39.168Z,23.65
2019-01-23T21:13:07.639Z,19.80
2019-01-23T21:15:36.151Z,22.87
2019-01-23T21:18:05.966Z,24.47
2019-01-23T21:20:36.029Z,25.27
2019-01-23T21:23:06.015Z,20.60
2019-01-23T21:25:34.586Z,24.90
2019-01-23T21:28:03.077Z,23.05
2019-01-23T21:30:31.574Z,25.37
2019-01-23T21:33:00.129Z,25.40
2019-01-23T21:35:28.650Z,23.70
2019-01-23T21:37:57.183Z,23.35
2019-01-23T21:40:28.404Z,24.70
2019-01-23T21:42:56.903Z,23.80
2019-01-23T21:45:25.487Z,25.25
2019-01-23T21:47:54.867Z,22.42
2019-01-23T21:50:25.099Z,24.23
2019-01-23T21:52:53.553Z,21.82
2019-01-23T21:55:24.280Z,23.18
2019-01-23T21:57:53.219Z,24.02
2019-01-23T22:00:27.306Z,24.57
2019-01-23T22:02:57.616Z,22.98
2019-01-23T22:05:26.120Z,23.57
2019-01-23T22:07:54.590Z,23.75
2019-01-23T22:10:23.063Z,23.30
2019-01-23T22:12:51.527Z,23.85
2019-01-23T22:15:22.926Z,25.75
2019-01-23T22:17:51.448Z,23.27
2019-01-23T22:20:21.563Z,22.77
2019-01-23T22:22:50.119Z,24.60
2019-01-23T22:25:20.489Z,23.70
2019-01-23T22:27:49.028Z,24.15
2019-01-23T22:30:20.147Z,23.95
2019-01-23T22:32:48.702Z,23.92
2019-01-23T22:35:17.514Z,24.10
2019-01-23T22:37:45.991Z,25.85
2019-01-23T22:40:19.135Z,27.95
2019-01-23T22:42:47.745Z,21.57
2019-01-23T22:45:18.354Z,24.32
2019-01-23T22:47:47.007Z,21.90
2019-01-23T22:50:20.227Z,24.00
2019-01-23T22:52:49.142Z,21.97
2019-01-23T22:55:17.929Z,23.32
2019-01-23T22:57:46.583Z,25.12
2019-01-23T23:00:23.617Z,22.70
2019-01-23T23:02:52.238Z,20.25
2019-01-23T23:05:20.775Z,24.23
2019-01-23T23:07:49.222Z,23.85
2019-01-23T23:10:17.923Z,21.10
2019-01-23T23:12:46.371Z,22.77
2019-01-23T23:15:15.487Z,27.67
2019-01-23T23:17:43.941Z,25.62
2019-01-23T23:20:13.558Z,24.63
2019-01-23T23:22:42.070Z,25.02
2019-01-23T23:25:11.573Z,24.47
2019-01-23T23:27:40.019Z,25.12
2019-01-23T23:30:11.553Z,25.75
2019-01-23T23:32:40.025Z,24.45
2019-01-23T23:35:08.808Z,24.82
2019-01-23T23:37:37.360Z,22.85
2019-01-23T23:40:11.757Z,23.70
2019-01-23T23:42:40.231Z,26.60
2019-01-23T23:45:14.802Z,24.90
2019-01-23T23:47:43.444Z,24.02
2019-01-23T23:50:13.532Z,23.65
2019-01-23T23:52:41.987Z,25.17
2019-01-23T23:55:15.020Z,26.52
2019-01-23T23:57:43.553Z,26.77
